Celebrity Solstice — 9HRJ9 — position and weather

sailwx.info

Track history (hours):
 
Tides and Currents Weather Stations Pressure Air Temp Water Temp Dewpoint Dewpoint Depression Visibility Wind Speed Wind Dir Waves Ship Positions

Celebrity Solstice

Last reported at 2018-May-24 09:00 UTC. Time now 2018-May-24 12:10 UTC.
Position N 50°37' W 129°30'.

Length 317 m; draft 9 m.

Type: Ship. MMSI: 249409000.

Date/timePositionNaut miles runAvg speedWind from/ knotsBaromVisibWave heightAir tempDewpointWater temp
2018-May-24 09:00N 50°37' W 129°30'1175.7
2018-May-24 09:00N 50°36' W 129°30'1123.6 310 / 181017.427.0 10.1 15.5
2018-May-24 08:30N 50°44' W 129°43'1121.8
2018-May-24 08:00N 50°51' W 129°57'1222.2
2018-May-24 07:29N 50°59' W 130°09'1122.4
2018-May-24 07:00N 51°07' W 130°21'1822.1
2018-May-24 06:11N 51°21' W 130°40'421.9
2018-May-24 06:00N 51°24' W 130°44'339168.8
2018-May-24 04:00N 48°18' W 123°24'408407.7 290 / 151012.0 14.0
2018-May-24 03:00N 52°18' W 132°00'9 9.5 290 / 161014.7 5.4 10.0 2.513.4
2018-May-24 02:00N 52°24' W 132°12'6120.4 290 / 151014.0 5.4 9.0 2.513.4
2018-May-23 23:00N 53°18' W 133°00'2121.0 250 / 121014.0 5.4 9.0 2.513.4
2018-May-23 22:00N 53°36' W 133°18'49198.2 270 / 101014.027.0 8.7 13.2
2018-May-23 17:00N 48°18' W 123°24'651130.3 040 / 51010.0 0.5 13.0
2018-May-23 12:00N 57°00' W 134°06'4321.6 020 / 91015.0 2.2 8.0 6.012.3
2018-May-23 10:00N 57°42' W 133°48'9513.5 240 / 21015.627.0 7.7 11.8
2018-May-23 03:00N 59°06' W 135°12'18 6.1 210 / 241013.0 5.4 8.0 3.812.0
2018-May-23 00:00N 59°24' W 135°18'0 0.0 200 / 191012.0 5.4 10.0 1.212.0
2018-May-22 23:00N 59°24' W 135°18'0 0.0 190 / 141011.427.0 10.7 13.1
2018-May-22 15:00N 59°24' W 135°18'30 7.5 300 / 51008.0 5.4 7.0 4.910.0
2018-May-22 11:00N 58°54' W 135°12'49 4.9 150 / 51007.3 2.2 7.3 12.7
2018-May-22 01:00N 58°12' W 134°24'59 7.4 120 / 151009.0 2.2 9.6 4.212.6
2018-May-21 17:00N 57°30' W 133°06'9 2.9 150 / 111005.0 5.4 10.0
2018-May-21 14:00N 57°36' W 133°18'1414.2 130 / 101008.0 2.2 8.4 6.411.5
2018-May-21 13:00N 57°42' W 133°42'1212.0 010 / 51009.0 2.2 9.0 5.811.5
2018-May-21 12:00N 57°30' W 133°42'4120.5 130 / 271009.0 2.2 8.5 6.311.5
2018-May-21 10:00N 56°54' W 134°18'4816.0 140 / 151009.1 2.2 8.4 11.6
2018-May-21 07:00N 56°06' W 134°18'2613.1 140 / 251007.0 5.4 14.0
2018-May-21 05:00N 56°18' W 133°36'4120.6 110 / 211009.0 5.4 12.0
2018-May-21 03:00N 55°54' W 132°36'2929.4 140 / 351015.0 5.4 9.0 7.013.6
2018-May-21 02:00N 55°30' W 132°06'30 2.3 130 / 301015.0 5.4 9.0 7.013.6
2018-May-20 13:00N 55°12' W 131°24'3110.3 100 / 121016.0 5.4 8.0 6.015.0
2018-May-20 10:00N 54°42' W 131°12'8374.3 160 / 51014.0 5.4 7.8 13.5
2018-May-20 09:58N 54°35' W 131°17'816.6
2018-May-20 09:29N 54°27' W 131°14'816.2
2018-May-20 09:00N 54°21' W 131°05'816.4
2018-May-20 08:30N 54°13' W 131°04'816.2
2018-May-20 08:01N 54°05' W 131°01'816.4
2018-May-20 07:30N 53°57' W 131°00'816.3
2018-May-20 07:00N 53°49' W 130°59'7777.8
2018-May-20 07:00N 53°42' W 130°54'1 2.7 150 / 21012.0 5.4 14.0
2018-May-20 06:30N 53°41' W 130°55'816.3
2018-May-20 06:00N 53°33' W 130°51'816.7
2018-May-20 05:30N 53°25' W 130°46'816.6
2018-May-20 04:59N 53°17' W 130°41'4016.9
2018-May-20 02:37N 52°40' W 130°18'617.0
2018-May-20 02:16N 52°34' W 130°14'517.1
2018-May-20 02:00N 52°30' W 130°12'034.6
2018-May-20 02:00N 52°30' W 130°12'917.6 240 / 51016.0 5.4 8.0 3.814.5
2018-May-20 01:29N 52°22' W 130°07'1021.3
2018-May-20 01:00N 52°12' W 130°00'1 3.9 270 / 81016.0 5.4 8.0 3.814.5
2018-May-20 00:51N 52°12' W 130°01'717.3
2018-May-20 00:27N 52°05' W 129°57'1117.2
2018-May-19 23:50N 51°55' W 129°51'617.4
2018-May-19 23:30N 51°50' W 129°48'2 3.3
2018-May-19 23:00N 51°48' W 129°48'1534.9 010 / 131016.0 5.4 14.012.314.0
2018-May-19 22:33N 51°33' W 129°41'117.2
2018-May-19 22:30N 51°33' W 129°40'917.5
2018-May-19 22:00N 51°25' W 129°33'143159.1
2018-May-19 22:00N 51°12' W 129°24'4 7.8 290 / 151017.1 5.4 8.5 15.0
2018-May-19 21:27N 51°16' W 129°27'1218.1
2018-May-19 20:49N 51°05' W 129°21'618.1
2018-May-19 20:28N 50°59' W 129°18'918.7
2018-May-19 20:00N 50°51' W 129°14'917.7
2018-May-19 19:30N 50°44' W 129°05'917.8
2018-May-19 19:00N 50°38' W 128°54'917.6
2018-May-19 18:30N 50°32' W 128°45'917.3
2018-May-19 18:00N 50°26' W 128°35'6376.9
2018-May-19 18:00N 50°30' W 128°42'1529.6 280 / 111015.0 5.4 14.0
2018-May-19 17:29N 50°19' W 128°26'3523.4
2018-May-19 16:00N 49°54' W 127°48'2613.2 320 / 161014.0 16.0
2018-May-19 14:00N 49°36' W 127°18'129128.6 320 / 111017.0 5.4 11.0 7.216.4
2018-May-19 13:00N 49°30' W 124°00'110375.6 300 / 151017.0 5.4 11.0 7.216.6
2018-May-19 12:42N 49°24' W 126°50'318.0
2018-May-19 12:30N 49°22' W 126°45'917.9
2018-May-19 12:00N 49°16' W 126°34'4313.4
2018-May-19 12:00N 49°12' W 126°36'816.7 260 / 151017.0 5.4 11.0 7.216.6
2018-May-19 11:30N 49°10' W 126°24'918.6
2018-May-19 11:00N 49°04' W 126°13'917.9
2018-May-19 10:30N 48°58' W 126°02'917.9
2018-May-19 10:00N 48°53' W 125°51'81046.5
2018-May-19 10:00N 48°48' W 125°42'1 2.0 340 / 111017.310.8 10.8 16.5
2018-May-19 09:30N 48°48' W 125°41'918.1
2018-May-19 09:00N 48°42' W 125°30'918.0
2018-May-19 08:30N 48°36' W 125°19'1117.5
2018-May-19 07:51N 48°32' W 125°03'719.3
2018-May-19 07:30N 48°32' W 124°53'918.5
2018-May-19 07:00N 48°29' W 124°40'918.1
2018-May-19 06:30N 48°26' W 124°27'917.8
2018-May-19 06:00N 48°23' W 124°15'11685.6
2018-May-19 06:00N 48°18' W 124°00'2 3.5 300 / 201015.0 5.4 14.0
2018-May-19 05:30N 48°19' W 124°02'1937.2
2018-May-19 05:00N 48°12' W 123°36'101074.6 280 / 251014.0 5.4 14.0
2018-May-19 04:59N 48°17' W 123°49'1317.4
2018-May-19 04:16N 48°15' W 123°30'517.1
2018-May-19 04:00N 48°12' W 123°25'611.2
2018-May-19 03:28N 48°10' W 123°17'816.3
2018-May-19 03:00N 48°13' W 123°06'916.9
2018-May-19 02:29N 48°12' W 122°53'1113.5
2018-May-19 01:41N 48°07' W 122°39'315.1
2018-May-19 01:28N 48°03' W 122°38'714.8
2018-May-19 01:00N 47°57' W 122°33'815.8
2018-May-19 00:31N 47°51' W 122°27'917.3
2018-May-19 00:00N 47°42' W 122°26'2105.0
2018-May-19 00:00N 47°42' W 122°24'5 9.4 290 / 41018.0 5.4 15.0 5.314.8
2018-May-18 23:30N 47°37' W 122°23'0 0.5
2018-May-18 22:49N 47°38' W 122°23'0 0.0
2018-May-18 22:28N 47°38' W 122°23'0 0.0
2018-May-18 21:55N 47°38' W 122°23'0 0.0
2018-May-18 21:28N 47°38' W 122°23'0 0.0
2018-May-18 20:55N 47°38' W 122°23'0 0.0
2018-May-18 20:25N 47°38' W 122°23'0 0.0
2018-May-18 19:52N 47°38' W 122°23'0 0.0
2018-May-18 19:16N 47°38' W 122°23'0 0.0
2018-May-18 18:55N 47°38' W 122°23'0 0.0
2018-May-18 18:28N 47°38' W 122°23'0 0.0
2018-May-18 17:37N 47°38' W 122°23'0 0.0
2018-May-18 17:28N 47°38' W 122°23'0 0.0
2018-May-18 16:51N 47°38' W 122°23'0 0.0
2018-May-18 16:27N 47°38' W 122°23'0 0.0
2018-May-18 16:00N 47°38' W 122°23'0 0.0
2018-May-18 15:27N 47°38' W 122°23'0 0.0
2018-May-18 15:00N 47°38' W 122°23'0 0.0
2018-May-18 14:24N 47°38' W 122°23'4 9.5
2018-May-18 14:00N 47°36' W 122°18'4275.0 200 / 71018.0 2.2 12.0 3.816.4
2018-May-18 13:59N 47°38' W 122°23'0 0.0
2018-May-18 13:29N 47°38' W 122°23'0 0.0
2018-May-18 13:00N 47°38' W 122°23'1 2.4
2018-May-18 12:30N 47°37' W 122°25'612.7
2018-May-18 12:00N 47°43' W 122°27'5399.5
2018-May-18 12:00N 47°48' W 122°24'4 8.9 040 / 71017.0 5.4 11.0 7.216.3
2018-May-18 11:30N 47°51' W 122°29'814.9
2018-May-18 10:59N 47°58' W 122°35'1212.3
2018-May-18 10:00N 48°06' W 122°48'589.6 260 / 181017.827.0 21.1 13.6
2018-May-18 09:56N 48°10' W 122°48'816.1
2018-May-18 09:27N 48°12' W 123°00'715.9
2018-May-18 09:00N 48°11' W 123°11'714.8
2018-May-18 08:30N 48°09' W 123°21'5 9.5
2018-May-18 07:58N 48°11' W 123°28'6 9.4
2018-May-18 07:23N 48°17' W 123°28'614.6
2018-May-18 07:00N 48°22' W 123°25'3 6.3
2018-May-18 06:31N 48°25' W 123°23'0 0.1
2018-May-18 05:58N 48°25' W 123°23'0 0.0
2018-May-18 05:30N 48°25' W 123°23'0 0.0
2018-May-18 04:59N 48°25' W 123°23'0 0.0
2018-May-18 04:28N 48°25' W 123°23'0 0.0
2018-May-18 03:55N 48°25' W 123°23'0 0.0
2018-May-18 03:29N 48°25' W 123°23'0 0.0
2018-May-18 03:00N 48°25' W 123°23'0 0.0
2018-May-18 02:29N 48°25' W 123°23'0 0.0
2018-May-18 01:59N 48°25' W 123°23'0 0.0
2018-May-18 01:29N 48°25' W 123°23'0 0.0
2018-May-18 00:59N 48°25' W 123°23'0 0.0
2018-May-18 00:28N 48°25' W 123°23'0 0.0
2018-May-17 23:59N 48°25' W 123°23'0 0.0
2018-May-17 23:30N 48°25' W 123°23'4 7.3
2018-May-17 23:00N 48°21' W 123°24'713.2
2018-May-17 22:30N 48°15' W 123°28'814.9
2018-May-17 21:59N 48°14' W 123°39'815.3
2018-May-17 21:26N 48°14' W 123°51'715.6
2018-May-17 20:59N 48°15' W 124°02'816.0
2018-May-17 20:30N 48°19' W 124°12'816.6
2018-May-17 20:00N 48°22' W 124°23'816.2
2018-May-17 19:30N 48°26' W 124°34'815.7
2018-May-17 19:00N 48°28' W 124°45'916.5
2018-May-17 18:29N 48°29' W 124°58'714.9
2018-May-17 18:00N 48°29' W 125°09'815.2
2018-May-17 17:30N 48°32' W 125°19'917.1
2018-May-17 17:00N 48°36' W 125°31'817.0
2018-May-17 16:30N 48°40' W 125°42'816.7
2018-May-17 16:01N 48°44' W 125°53'917.1
2018-May-17 15:30N 48°50' W 126°03'917.5
2018-May-17 15:01N 48°55' W 126°13'182.6
2018-May-17 15:00N 48°54' W 126°12'1123.5 110 / 71020.0 2.2 11.0 7.215.0
2018-May-17 14:30N 49°01' W 126°25'1120.7
2018-May-17 13:58N 49°08' W 126°38'1414.3
2018-May-17 13:00N 49°18' W 126°54'4924.5 110 / 101023.0 5.4 15.0-0.215.0
2018-May-17 11:00N 49°48' W 127°54'1121.2
2018-May-17 10:30N 49°54' W 128°06'1121.1
2018-May-17 10:00N 50°01' W 128°19'1121.1
2018-May-17 09:30N 50°07' W 128°32'1020.9
2018-May-17 09:00N 50°14' W 128°45'3161.0
2018-May-17 09:00N 50°12' W 128°42'1326.6 350 / 231022.327.0 9.2 14.0
2018-May-17 08:30N 50°20' W 128°57'1020.9
2018-May-17 08:00N 50°27' W 129°10'1120.9
2018-May-17 07:30N 50°33' W 129°23'1020.7
2018-May-17 07:00N 50°40' W 129°36'1020.6
2018-May-17 06:30N 50°46' W 129°49'1020.8
2018-May-17 06:00N 50°53' W 130°01'5324.9
2018-May-17 06:00N 50°48' W 130°00'1530.5 310 / 17 13.0
2018-May-17 05:30N 51°01' W 130°12'1020.6
2018-May-17 05:00N 51°09' W 130°22'1121.0
2018-May-17 04:30N 51°17' W 130°34'1121.4
2018-May-17 04:00N 51°24' W 130°45'1221.2
2018-May-17 03:26N 51°34' W 130°58'921.0
2018-May-17 03:00N 51°40' W 131°07'4289.6
2018-May-17 03:00N 51°36' W 131°06'3222.7 330 / 211023.0 5.4 11.0-3.512.0
2018-May-17 01:34N 52°02' W 131°38'219.9
2018-May-17 01:30N 52°03' W 131°39'2214.7
2018-May-17 00:00N 52°12' W 132°12'4622.9 320 / 301023.010.8 21.0-3.112.4
2018-May-16 22:00N 52°54' W 132°42'8423.6 320 / 301023.627.0 19.7 12.1
2018-May-16 18:26N 54°11' W 133°40'5221.1
2018-May-16 16:00N 55°00' W 134°06'8521.3 320 / 291019.0 12.0
2018-May-16 12:00N 56°24' W 134°30'4314.2 350 / 141021.0 5.4 6.0-2.411.8
2018-May-16 09:00N 57°06' W 134°42'6020.1 360 / 161021.027.0 6.8 11.1
2018-May-16 06:00N 58°06' W 134°54'7324.4 280 / 241017.0 5.4 11.0
2018-May-16 03:00N 59°18' W 135°18'6 1.5 170 / 131020.0 5.4 9.0 12.0
2018-May-15 23:00N 59°24' W 135°18'37 2.8 200 / 121020.527.0 10.3 11.9
2018-May-15 10:00N 58°48' W 135°06'4214.1 170 / 221020.427.0 12.2 10.4
2018-May-15 07:00N 58°12' W 134°24'0 0.0 330 / 131017.0 5.4 10.0
2018-May-15 02:00N 58°12' W 134°24'53 5.8 120 / 131020.0 2.2 8.0 1.311.4
2018-May-14 17:00N 57°36' W 133°12'16 4.0 340 1017.0 5.4 10.0
2018-May-14 13:00N 57°36' W 133°42'3919.7 170 / 261018.0 2.2 13.0-0.211.6
2018-May-14 11:00N 57°00' W 134°12'   140 / 261017.410.8 6.7 12.1
Track history (hours):
 
Tides and Currents Weather Stations Pressure Air Temp Water Temp Dewpoint Dewpoint Depression Visibility Wind Speed Wind Dir Waves Ship Positions

Celebrity Solstice

Last reported at 2018-May-24 09:00 UTC. Time now 2018-May-24 12:10 UTC.
Position N 50°37' W 129°30'.

Length 317 m; draft 9 m.

Type: Ship. MMSI: 249409000.

Date/timePositionNaut miles runAvg speedWind from/ knotsBaromVisibWave heightAir tempDewpointWater temp
2018-May-24 09:00N 50°37' W 129°30'1175.7
2018-May-24 09:00N 50°36' W 129°30'1123.6 310 / 181017.427.0 10.1 15.5
2018-May-24 08:30N 50°44' W 129°43'1121.8
2018-May-24 08:00N 50°51' W 129°57'1222.2
2018-May-24 07:29N 50°59' W 130°09'1122.4
2018-May-24 07:00N 51°07' W 130°21'1822.1
2018-May-24 06:11N 51°21' W 130°40'421.9
2018-May-24 06:00N 51°24' W 130°44'339168.8
2018-May-24 04:00N 48°18' W 123°24'408407.7 290 / 151012.0 14.0
2018-May-24 03:00N 52°18' W 132°00'9 9.5 290 / 161014.7 5.4 10.0 2.513.4
2018-May-24 02:00N 52°24' W 132°12'6120.4 290 / 151014.0 5.4 9.0 2.513.4
2018-May-23 23:00N 53°18' W 133°00'2121.0 250 / 121014.0 5.4 9.0 2.513.4
2018-May-23 22:00N 53°36' W 133°18'49198.2 270 / 101014.027.0 8.7 13.2
2018-May-23 17:00N 48°18' W 123°24'651130.3 040 / 51010.0 0.5 13.0
2018-May-23 12:00N 57°00' W 134°06'4321.6 020 / 91015.0 2.2 8.0 6.012.3
2018-May-23 10:00N 57°42' W 133°48'9513.5 240 / 21015.627.0 7.7 11.8
2018-May-23 03:00N 59°06' W 135°12'18 6.1 210 / 241013.0 5.4 8.0 3.812.0
2018-May-23 00:00N 59°24' W 135°18'0 0.0 200 / 191012.0 5.4 10.0 1.212.0
2018-May-22 23:00N 59°24' W 135°18'0 0.0 190 / 141011.427.0 10.7 13.1
2018-May-22 15:00N 59°24' W 135°18'30 7.5 300 / 51008.0 5.4 7.0 4.910.0
2018-May-22 11:00N 58°54' W 135°12'49 4.9 150 / 51007.3 2.2 7.3 12.7
2018-May-22 01:00N 58°12' W 134°24'59 7.4 120 / 151009.0 2.2 9.6 4.212.6
2018-May-21 17:00N 57°30' W 133°06'9 2.9 150 / 111005.0 5.4 10.0
2018-May-21 14:00N 57°36' W 133°18'1414.2 130 / 101008.0 2.2 8.4 6.411.5
2018-May-21 13:00N 57°42' W 133°42'1212.0 010 / 51009.0 2.2 9.0 5.811.5
2018-May-21 12:00N 57°30' W 133°42'4120.5 130 / 271009.0 2.2 8.5 6.311.5
2018-May-21 10:00N 56°54' W 134°18'4816.0 140 / 151009.1 2.2 8.4 11.6
2018-May-21 07:00N 56°06' W 134°18'2613.1 140 / 251007.0 5.4 14.0
2018-May-21 05:00N 56°18' W 133°36'4120.6 110 / 211009.0 5.4 12.0
2018-May-21 03:00N 55°54' W 132°36'2929.4 140 / 351015.0 5.4 9.0 7.013.6
2018-May-21 02:00N 55°30' W 132°06'30 2.3 130 / 301015.0 5.4 9.0 7.013.6
2018-May-20 13:00N 55°12' W 131°24'3110.3 100 / 121016.0 5.4 8.0 6.015.0
2018-May-20 10:00N 54°42' W 131°12'8374.3 160 / 51014.0 5.4 7.8 13.5
2018-May-20 09:58N 54°35' W 131°17'816.6
2018-May-20 09:29N 54°27' W 131°14'816.2
2018-May-20 09:00N 54°21' W 131°05'816.4
2018-May-20 08:30N 54°13' W 131°04'816.2
2018-May-20 08:01N 54°05' W 131°01'816.4
2018-May-20 07:30N 53°57' W 131°00'816.3
2018-May-20 07:00N 53°49' W 130°59'7777.8
2018-May-20 07:00N 53°42' W 130°54'1 2.7 150 / 21012.0 5.4 14.0
2018-May-20 06:30N 53°41' W 130°55'816.3
2018-May-20 06:00N 53°33' W 130°51'816.7
2018-May-20 05:30N 53°25' W 130°46'816.6
2018-May-20 04:59N 53°17' W 130°41'4016.9
2018-May-20 02:37N 52°40' W 130°18'617.0
2018-May-20 02:16N 52°34' W 130°14'517.1
2018-May-20 02:00N 52°30' W 130°12'034.6
2018-May-20 02:00N 52°30' W 130°12'917.6 240 / 51016.0 5.4 8.0 3.814.5
2018-May-20 01:29N 52°22' W 130°07'1021.3
2018-May-20 01:00N 52°12' W 130°00'1 3.9 270 / 81016.0 5.4 8.0 3.814.5
2018-May-20 00:51N 52°12' W 130°01'717.3
2018-May-20 00:27N 52°05' W 129°57'1117.2
2018-May-19 23:50N 51°55' W 129°51'617.4
2018-May-19 23:30N 51°50' W 129°48'2 3.3
2018-May-19 23:00N 51°48' W 129°48'1534.9 010 / 131016.0 5.4 14.012.314.0
2018-May-19 22:33N 51°33' W 129°41'117.2
2018-May-19 22:30N 51°33' W 129°40'917.5
2018-May-19 22:00N 51°25' W 129°33'143159.1
2018-May-19 22:00N 51°12' W 129°24'4 7.8 290 / 151017.1 5.4 8.5 15.0
2018-May-19 21:27N 51°16' W 129°27'1218.1
2018-May-19 20:49N 51°05' W 129°21'618.1
2018-May-19 20:28N 50°59' W 129°18'918.7
2018-May-19 20:00N 50°51' W 129°14'917.7
2018-May-19 19:30N 50°44' W 129°05'917.8
2018-May-19 19:00N 50°38' W 128°54'917.6
2018-May-19 18:30N 50°32' W 128°45'917.3
2018-May-19 18:00N 50°26' W 128°35'6376.9
2018-May-19 18:00N 50°30' W 128°42'1529.6 280 / 111015.0 5.4 14.0
2018-May-19 17:29N 50°19' W 128°26'3523.4
2018-May-19 16:00N 49°54' W 127°48'2613.2 320 / 161014.0 16.0
2018-May-19 14:00N 49°36' W 127°18'129128.6 320 / 111017.0 5.4 11.0 7.216.4
2018-May-19 13:00N 49°30' W 124°00'110375.6 300 / 151017.0 5.4 11.0 7.216.6
2018-May-19 12:42N 49°24' W 126°50'318.0
2018-May-19 12:30N 49°22' W 126°45'917.9
2018-May-19 12:00N 49°16' W 126°34'4313.4
2018-May-19 12:00N 49°12' W 126°36'816.7 260 / 151017.0 5.4 11.0 7.216.6
2018-May-19 11:30N 49°10' W 126°24'918.6
2018-May-19 11:00N 49°04' W 126°13'917.9
2018-May-19 10:30N 48°58' W 126°02'917.9
2018-May-19 10:00N 48°53' W 125°51'81046.5
2018-May-19 10:00N 48°48' W 125°42'1 2.0 340 / 111017.310.8 10.8 16.5
2018-May-19 09:30N 48°48' W 125°41'918.1
2018-May-19 09:00N 48°42' W 125°30'918.0
2018-May-19 08:30N 48°36' W 125°19'1117.5
2018-May-19 07:51N 48°32' W 125°03'719.3
2018-May-19 07:30N 48°32' W 124°53'918.5
2018-May-19 07:00N 48°29' W 124°40'918.1
2018-May-19 06:30N 48°26' W 124°27'917.8
2018-May-19 06:00N 48°23' W 124°15'11685.6
2018-May-19 06:00N 48°18' W 124°00'2 3.5 300 / 201015.0 5.4 14.0
2018-May-19 05:30N 48°19' W 124°02'1937.2
2018-May-19 05:00N 48°12' W 123°36'101074.6 280 / 251014.0 5.4 14.0
2018-May-19 04:59N 48°17' W 123°49'1317.4
2018-May-19 04:16N 48°15' W 123°30'517.1
2018-May-19 04:00N 48°12' W 123°25'611.2
2018-May-19 03:28N 48°10' W 123°17'816.3
2018-May-19 03:00N 48°13' W 123°06'916.9
2018-May-19 02:29N 48°12' W 122°53'1113.5
2018-May-19 01:41N 48°07' W 122°39'315.1
2018-May-19 01:28N 48°03' W 122°38'714.8
2018-May-19 01:00N 47°57' W 122°33'815.8
2018-May-19 00:31N 47°51' W 122°27'917.3
2018-May-19 00:00N 47°42' W 122°26'2105.0
2018-May-19 00:00N 47°42' W 122°24'5 9.4 290 / 41018.0 5.4 15.0 5.314.8
2018-May-18 23:30N 47°37' W 122°23'0 0.5
2018-May-18 22:49N 47°38' W 122°23'0 0.0
2018-May-18 22:28N 47°38' W 122°23'0 0.0
2018-May-18 21:55N 47°38' W 122°23'0 0.0
2018-May-18 21:28N 47°38' W 122°23'0 0.0
2018-May-18 20:55N 47°38' W 122°23'0 0.0
2018-May-18 20:25N 47°38' W 122°23'0 0.0
2018-May-18 19:52N 47°38' W 122°23'0 0.0
2018-May-18 19:16N 47°38' W 122°23'0 0.0
2018-May-18 18:55N 47°38' W 122°23'0 0.0
2018-May-18 18:28N 47°38' W 122°23'0 0.0
2018-May-18 17:37N 47°38' W 122°23'0 0.0
2018-May-18 17:28N 47°38' W 122°23'0 0.0
2018-May-18 16:51N 47°38' W 122°23'0 0.0
2018-May-18 16:27N 47°38' W 122°23'0 0.0
2018-May-18 16:00N 47°38' W 122°23'0 0.0
2018-May-18 15:27N 47°38' W 122°23'0 0.0
2018-May-18 15:00N 47°38' W 122°23'0 0.0
2018-May-18 14:24N 47°38' W 122°23'4 9.5
2018-May-18 14:00N 47°36' W 122°18'4275.0 200 / 71018.0 2.2 12.0 3.816.4
2018-May-18 13:59N 47°38' W 122°23'0 0.0
2018-May-18 13:29N 47°38' W 122°23'0 0.0
2018-May-18 13:00N 47°38' W 122°23'1 2.4
2018-May-18 12:30N 47°37' W 122°25'612.7
2018-May-18 12:00N 47°43' W 122°27'5399.5
2018-May-18 12:00N 47°48' W 122°24'4 8.9 040 / 71017.0 5.4 11.0 7.216.3
2018-May-18 11:30N 47°51' W 122°29'814.9
2018-May-18 10:59N 47°58' W 122°35'1212.3
2018-May-18 10:00N 48°06' W 122°48'589.6 260 / 181017.827.0 21.1 13.6
2018-May-18 09:56N 48°10' W 122°48'816.1
2018-May-18 09:27N 48°12' W 123°00'715.9
2018-May-18 09:00N 48°11' W 123°11'714.8
2018-May-18 08:30N 48°09' W 123°21'5 9.5
2018-May-18 07:58N 48°11' W 123°28'6 9.4
2018-May-18 07:23N 48°17' W 123°28'614.6
2018-May-18 07:00N 48°22' W 123°25'3 6.3
2018-May-18 06:31N 48°25' W 123°23'0 0.1
2018-May-18 05:58N 48°25' W 123°23'0 0.0
2018-May-18 05:30N 48°25' W 123°23'0 0.0
2018-May-18 04:59N 48°25' W 123°23'0 0.0
2018-May-18 04:28N 48°25' W 123°23'0 0.0
2018-May-18 03:55N 48°25' W 123°23'0 0.0
2018-May-18 03:29N 48°25' W 123°23'0 0.0
2018-May-18 03:00N 48°25' W 123°23'0 0.0
2018-May-18 02:29N 48°25' W 123°23'0 0.0
2018-May-18 01:59N 48°25' W 123°23'0 0.0
2018-May-18 01:29N 48°25' W 123°23'0 0.0
2018-May-18 00:59N 48°25' W 123°23'0 0.0
2018-May-18 00:28N 48°25' W 123°23'0 0.0
2018-May-17 23:59N 48°25' W 123°23'0 0.0
2018-May-17 23:30N 48°25' W 123°23'4 7.3
2018-May-17 23:00N 48°21' W 123°24'713.2
2018-May-17 22:30N 48°15' W 123°28'814.9
2018-May-17 21:59N 48°14' W 123°39'815.3
2018-May-17 21:26N 48°14' W 123°51'715.6
2018-May-17 20:59N 48°15' W 124°02'816.0
2018-May-17 20:30N 48°19' W 124°12'816.6
2018-May-17 20:00N 48°22' W 124°23'816.2
2018-May-17 19:30N 48°26' W 124°34'815.7
2018-May-17 19:00N 48°28' W 124°45'916.5
2018-May-17 18:29N 48°29' W 124°58'714.9
2018-May-17 18:00N 48°29' W 125°09'815.2
2018-May-17 17:30N 48°32' W 125°19'917.1
2018-May-17 17:00N 48°36' W 125°31'817.0
2018-May-17 16:30N 48°40' W 125°42'816.7
2018-May-17 16:01N 48°44' W 125°53'917.1
2018-May-17 15:30N 48°50' W 126°03'917.5
2018-May-17 15:01N 48°55' W 126°13'182.6
2018-May-17 15:00N 48°54' W 126°12'1123.5 110 / 71020.0 2.2 11.0 7.215.0
2018-May-17 14:30N 49°01' W 126°25'1120.7
2018-May-17 13:58N 49°08' W 126°38'1414.3
2018-May-17 13:00N 49°18' W 126°54'4924.5 110 / 101023.0 5.4 15.0-0.215.0
2018-May-17 11:00N 49°48' W 127°54'1121.2
2018-May-17 10:30N 49°54' W 128°06'1121.1
2018-May-17 10:00N 50°01' W 128°19'1121.1
2018-May-17 09:30N 50°07' W 128°32'1020.9
2018-May-17 09:00N 50°14' W 128°45'3161.0
2018-May-17 09:00N 50°12' W 128°42'1326.6 350 / 231022.327.0 9.2 14.0
2018-May-17 08:30N 50°20' W 128°57'1020.9
2018-May-17 08:00N 50°27' W 129°10'1120.9
2018-May-17 07:30N 50°33' W 129°23'1020.7
2018-May-17 07:00N 50°40' W 129°36'1020.6
2018-May-17 06:30N 50°46' W 129°49'1020.8
2018-May-17 06:00N 50°53' W 130°01'5324.9
2018-May-17 06:00N 50°48' W 130°00'1530.5 310 / 17 13.0
2018-May-17 05:30N 51°01' W 130°12'1020.6
2018-May-17 05:00N 51°09' W 130°22'1121.0
2018-May-17 04:30N 51°17' W 130°34'1121.4
2018-May-17 04:00N 51°24' W 130°45'1221.2
2018-May-17 03:26N 51°34' W 130°58'921.0
2018-May-17 03:00N 51°40' W 131°07'4289.6
2018-May-17 03:00N 51°36' W 131°06'3222.7 330 / 211023.0 5.4 11.0-3.512.0
2018-May-17 01:34N 52°02' W 131°38'219.9
2018-May-17 01:30N 52°03' W 131°39'2214.7
2018-May-17 00:00N 52°12' W 132°12'4622.9 320 / 301023.010.8 21.0-3.112.4
2018-May-16 22:00N 52°54' W 132°42'8423.6 320 / 301023.627.0 19.7 12.1
2018-May-16 18:26N 54°11' W 133°40'5221.1
2018-May-16 16:00N 55°00' W 134°06'8521.3 320 / 291019.0 12.0
2018-May-16 12:00N 56°24' W 134°30'4314.2 350 / 141021.0 5.4 6.0-2.411.8
2018-May-16 09:00N 57°06' W 134°42'6020.1 360 / 161021.027.0 6.8 11.1
2018-May-16 06:00N 58°06' W 134°54'7324.4 280 / 241017.0 5.4 11.0
2018-May-16 03:00N 59°18' W 135°18'6 1.5 170 / 131020.0 5.4 9.0 12.0
2018-May-15 23:00N 59°24' W 135°18'37 2.8 200 / 121020.527.0 10.3 11.9
2018-May-15 10:00N 58°48' W 135°06'4214.1 170 / 221020.427.0 12.2 10.4
2018-May-15 07:00N 58°12' W 134°24'0 0.0 330 / 131017.0 5.4 10.0
2018-May-15 02:00N 58°12' W 134°24'53 5.8 120 / 131020.0 2.2 8.0 1.311.4
2018-May-14 17:00N 57°36' W 133°12'16 4.0 340 1017.0 5.4 10.0
2018-May-14 13:00N 57°36' W 133°42'3919.7 170 / 261018.0 2.2 13.0-0.211.6
2018-May-14 11:00N 57°00' W 134°12'   140 / 261017.410.8 6.7 12.1

Dump ship's entire track history